Greenbush, Minnesota
Current Conditions -  °F | °C
As of 10:15 AM on Saturday 20 Dec 2014 (Local Time) from KROX Reporting Station
Haze Haze  
Wind Chill: 24°   Ceiling: 900
Heat Index: 30°   Visibility: 4mi
Dew Point: 25°   Wind: 6mph
Humidity: 80%   Direction: 200°SSW
Pressure: 30.02"   Gusts: 9mph
Location:  48.7°N, 96.18°W
Report Text: KROX 201615Z AUTO 20005G08KT 4SM HZ OVC009 M01/M04 A3002 RMK AO2
Loading
Personal Weather Stations






























Interactive Weather Map New forecast layout! Learn more

10-Day Weather Forecast

Advertisements
Track Severe Weather on mobile